sensor_id;sensor_type;location;lat;lon;timestamp;pressure;altitude;pressure_sealevel;temperature;humidity
10127;BME280;13080;42.608;23.362;2023-03-13T00:01:57;150599.16;;;-2.02;73.66
10127;BME280;13080;42.608;23.362;2023-03-13T00:04:24;150603.03;;;-2.01;73.09
10127;BME280;13080;42.608;23.362;2023-03-13T00:06:51;150597.88;;;-2.03;73.46
10127;BME280;13080;42.608;23.362;2023-03-13T00:09:17;150601.75;;;-2.01;73.21
10127;BME280;13080;42.608;23.362;2023-03-13T00:11:44;150597.88;;;-2.03;73.68
10127;BME280;13080;42.608;23.362;2023-03-13T00:14:13;150599.16;;;-2.02;73.49
10127;BME280;13080;42.608;23.362;2023-03-13T00:16:39;150588.84;;;-2.06;73.49
10127;BME280;13080;42.608;23.362;2023-03-13T00:19:07;150591.44;;;-2.05;73.15
10127;BME280;13080;42.608;23.362;2023-03-13T00:21:34;150587.56;;;-2.07;73.42
10127;BME280;13080;42.608;23.362;2023-03-13T00:24:02;150578.63;;;-2.11;73.25
10127;BME280;13080;42.608;23.362;2023-03-13T00:26:29;150586.31;;;-2.07;73.05
10127;BME280;13080;42.608;23.362;2023-03-13T00:28:56;150574.75;;;-2.12;73.84
10127;BME280;13080;42.608;23.362;2023-03-13T00:31:27;150574.75;;;-2.12;74.02
10127;BME280;13080;42.608;23.362;2023-03-13T00:33:57;150569.59;;;-2.14;74.02
10127;BME280;13080;42.608;23.362;2023-03-13T00:36:26;150552.88;;;-2.21;73.85
10127;BME280;13080;42.608;23.362;2023-03-13T00:38:53;150564.44;;;-2.16;73.77
10127;BME280;13080;42.608;23.362;2023-03-13T00:41:22;150564.44;;;-2.16;73.59
10127;BME280;13080;42.608;23.362;2023-03-13T00:43:49;150556.75;;;-2.19;73.70
10127;BME280;13080;42.608;23.362;2023-03-13T00:46:19;150555.44;;;-2.20;73.07
10127;BME280;13080;42.608;23.362;2023-03-13T00:48:48;150541.31;;;-2.25;73.96
10127;BME280;13080;42.608;23.362;2023-03-13T00:51:16;150545.19;;;-2.24;73.91
10127;BME280;13080;42.608;23.362;2023-03-13T00:53:43;150551.63;;;-2.21;73.82
10127;BME280;13080;42.608;23.362;2023-03-13T00:56:11;150545.19;;;-2.24;74.08
10127;BME280;13080;42.608;23.362;2023-03-13T00:58:40;150536.16;;;-2.27;74.46
10127;BME280;13080;42.608;23.362;2023-03-13T01:01:08;150533.63;;;-2.28;74.38
10127;BME280;13080;42.608;23.362;2023-03-13T01:03:37;150518.19;;;-2.35;73.88
10127;BME280;13080;42.608;23.362;2023-03-13T01:06:07;150533.63;;;-2.28;74.03
10127;BME280;13080;42.608;23.362;2023-03-13T01:08:34;150524.63;;;-2.32;73.93
10127;BME280;13080;42.608;23.362;2023-03-13T01:11:03;150509.19;;;-2.38;74.10
10127;BME280;13080;42.608;23.362;2023-03-13T01:13:31;150501.47;;;-2.41;74.40
10127;BME280;13080;42.608;23.362;2023-03-13T01:16:01;150509.19;;;-2.38;73.58
10127;BME280;13080;42.608;23.362;2023-03-13T01:18:28;150500.22;;;-2.42;74.45
10127;BME280;13080;42.608;23.362;2023-03-13T01:20:55;150505.34;;;-2.40;73.80
10127;BME280;13080;42.608;23.362;2023-03-13T01:23:23;150502.75;;;-2.41;73.10
10127;BME280;13080;42.608;23.362;2023-03-13T01:25:50;150497.63;;;-2.43;74.11
10127;BME280;13080;42.608;23.362;2023-03-13T01:28:16;150491.19;;;-2.45;75.44
10127;BME280;13080;42.608;23.362;2023-03-13T01:30:43;150478.34;;;-2.51;75.76
10127;BME280;13080;42.608;23.362;2023-03-13T01:33:10;150466.78;;;-2.55;76.48
10127;BME280;13080;42.608;23.362;2023-03-13T01:35:37;150452.63;;;-2.61;76.51
10127;BME280;13080;42.608;23.362;2023-03-13T01:38:04;150450.09;;;-2.62;76.26
10127;BME280;13080;42.608;23.362;2023-03-13T01:40:38;150437.22;;;-2.67;76.46
10127;BME280;13080;42.608;23.362;2023-03-13T01:43:15;150439.81;;;-2.66;76.37
10127;BME280;13080;42.608;23.362;2023-03-13T01:46:01;150423.09;;;-2.73;76.59
10127;BME280;13080;42.608;23.362;2023-03-13T01:48:42;150417.97;;;-2.75;76.79
10127;BME280;13080;42.608;23.362;2023-03-13T01:51:12;150424.38;;;-2.72;76.31
10127;BME280;13080;42.608;23.362;2023-03-13T01:53:43;150421.84;;;-2.73;75.60
10127;BME280;13080;42.608;23.362;2023-03-13T01:56:16;150414.09;;;-2.76;75.18
10127;BME280;13080;42.608;23.362;2023-03-13T01:58:45;150411.53;;;-2.77;76.06
10127;BME280;13080;42.608;23.362;2023-03-13T02:01:14;150419.22;;;-2.74;75.29
10127;BME280;13080;42.608;23.362;2023-03-13T02:03:41;150416.69;;;-2.75;75.40
10127;BME280;13080;42.608;23.362;2023-03-13T02:06:09;150412.81;;;-2.77;76.11
10127;BME280;13080;42.608;23.362;2023-03-13T02:08:37;150398.72;;;-2.82;75.30
10127;BME280;13080;42.608;23.362;2023-03-13T02:11:18;150401.25;;;-2.81;75.69
10127;BME280;13080;42.608;23.362;2023-03-13T02:13:47;150402.53;;;-2.81;75.89
10127;BME280;13080;42.608;23.362;2023-03-13T02:16:15;150396.13;;;-2.83;76.23
10127;BME280;13080;42.608;23.362;2023-03-13T02:18:43;150396.13;;;-2.83;75.98
10127;BME280;13080;42.608;23.362;2023-03-13T02:21:15;150387.16;;;-2.87;76.00
10127;BME280;13080;42.608;23.362;2023-03-13T02:23:50;150376.88;;;-2.91;76.31
10127;BME280;13080;42.608;23.362;2023-03-13T02:26:20;150378.13;;;-2.90;76.13
10127;BME280;13080;42.608;23.362;2023-03-13T02:28:47;150382.00;;;-2.89;76.09
10127;BME280;13080;42.608;23.362;2023-03-13T02:31:15;150374.28;;;-2.92;76.86
10127;BME280;13080;42.608;23.362;2023-03-13T02:33:42;150351.16;;;-3.01;76.74
10127;BME280;13080;42.608;23.362;2023-03-13T02:36:10;150365.31;;;-2.96;77.36
10127;BME280;13080;42.608;23.362;2023-03-13T02:38:42;150347.28;;;-3.03;77.91
10127;BME280;13080;42.608;23.362;2023-03-13T02:41:12;150340.88;;;-3.05;78.10
10127;BME280;13080;42.608;23.362;2023-03-13T02:43:40;150339.59;;;-3.06;78.10
10127;BME280;13080;42.608;23.362;2023-03-13T02:46:09;150337.06;;;-3.07;77.91
10127;BME280;13080;42.608;23.362;2023-03-13T02:48:38;150358.91;;;-2.98;77.23
10127;BME280;13080;42.608;23.362;2023-03-13T02:51:13;150352.44;;;-3.01;78.04
10127;BME280;13080;42.608;23.362;2023-03-13T02:53:42;150352.44;;;-3.01;78.43
10127;BME280;13080;42.608;23.362;2023-03-13T02:56:11;150362.72;;;-2.97;77.78
10127;BME280;13080;42.608;23.362;2023-03-13T02:58:42;150357.56;;;-2.99;78.93
10127;BME280;13080;42.608;23.362;2023-03-13T03:01:08;150364.00;;;-2.96;77.70
10127;BME280;13080;42.608;23.362;2023-03-13T03:03:35;150353.75;;;-3.00;77.22
10127;BME280;13080;42.608;23.362;2023-03-13T03:06:04;150356.31;;;-2.99;77.17
10127;BME280;13080;42.608;23.362;2023-03-13T03:08:31;150351.16;;;-3.01;75.95
10127;BME280;13080;42.608;23.362;2023-03-13T03:10:58;150353.75;;;-3.00;76.08
10127;BME280;13080;42.608;23.362;2023-03-13T03:13:25;150356.31;;;-2.99;76.22
10127;BME280;13080;42.608;23.362;2023-03-13T03:15:54;150355.03;;;-3.00;76.17
10127;BME280;13080;42.608;23.362;2023-03-13T03:18:20;150353.75;;;-3.00;75.91
10127;BME280;13080;42.608;23.362;2023-03-13T03:20:47;150357.56;;;-2.99;77.03
10127;BME280;13080;42.608;23.362;2023-03-13T03:23:14;150346.00;;;-3.03;77.88
10127;BME280;13080;42.608;23.362;2023-03-13T03:25:40;150333.19;;;-3.08;77.99
10127;BME280;13080;42.608;23.362;2023-03-13T03:28:08;150319.03;;;-3.14;78.31
10127;BME280;13080;42.608;23.362;2023-03-13T03:30:34;150326.78;;;-3.11;78.20
10127;BME280;13080;42.608;23.362;2023-03-13T03:33:03;150316.50;;;-3.15;78.48
10127;BME280;13080;42.608;23.362;2023-03-13T03:35:29;150316.50;;;-3.15;79.87
10127;BME280;13080;42.608;23.362;2023-03-13T03:37:58;150313.94;;;-3.16;79.62
10127;BME280;13080;42.608;23.362;2023-03-13T03:40:25;150307.47;;;-3.19;78.39
10127;BME280;13080;42.608;23.362;2023-03-13T03:42:52;150298.53;;;-3.22;78.48
10127;BME280;13080;42.608;23.362;2023-03-13T03:45:19;150288.25;;;-3.26;79.30
10127;BME280;13080;42.608;23.362;2023-03-13T03:47:46;150295.94;;;-3.23;79.51
10127;BME280;13080;42.608;23.362;2023-03-13T03:50:14;150297.25;;;-3.23;79.32
10127;BME280;13080;42.608;23.362;2023-03-13T03:52:41;150294.66;;;-3.24;79.02
10127;BME280;13080;42.608;23.362;2023-03-13T03:55:08;150290.78;;;-3.25;78.58
10127;BME280;13080;42.608;23.362;2023-03-13T03:57:35;150289.50;;;-3.26;78.76
10127;BME280;13080;42.608;23.362;2023-03-13T04:00:02;150276.69;;;-3.31;78.10
10127;BME280;13080;42.608;23.362;2023-03-13T04:02:32;150298.53;;;-3.22;78.24
10127;BME280;13080;42.608;23.362;2023-03-13T04:04:58;150292.09;;;-3.25;77.77
10127;BME280;13080;42.608;23.362;2023-03-13T04:07:27;150288.25;;;-3.26;78.41
10127;BME280;13080;42.608;23.362;2023-03-13T04:09:53;150295.94;;;-3.23;78.11
10127;BME280;13080;42.608;23.362;2023-03-13T04:12:20;150288.25;;;-3.26;78.23
10127;BME280;13080;42.608;23.362;2023-03-13T04:14:47;150277.97;;;-3.30;79.06
10127;BME280;13080;42.608;23.362;2023-03-13T04:17:14;150267.69;;;-3.35;79.66
10127;BME280;13080;42.608;23.362;2023-03-13T04:19:40;150257.41;;;-3.39;80.09
10127;BME280;13080;42.608;23.362;2023-03-13T04:22:07;150261.25;;;-3.37;80.49
10127;BME280;13080;42.608;23.362;2023-03-13T04:24:35;150252.31;;;-3.41;80.24
10127;BME280;13080;42.608;23.362;2023-03-13T04:27:02;150229.16;;;-3.50;80.59
10127;BME280;13080;42.608;23.362;2023-03-13T04:29:30;150221.47;;;-3.53;81.02
10127;BME280;13080;42.608;23.362;2023-03-13T04:31:57;150221.47;;;-3.53;82.04
10127;BME280;13080;42.608;23.362;2023-03-13T04:34:24;150211.19;;;-3.57;82.36
10127;BME280;13080;42.608;23.362;2023-03-13T04:36:51;150207.38;;;-3.59;82.18
10127;BME280;13080;42.608;23.362;2023-03-13T04:39:18;150208.66;;;-3.58;81.92
10127;BME280;13080;42.608;23.362;2023-03-13T04:41:46;150226.59;;;-3.51;85.07
10127;BME280;13080;42.608;23.362;2023-03-13T04:44:12;150234.28;;;-3.48;84.14
10127;BME280;13080;42.608;23.362;2023-03-13T04:46:39;150235.63;;;-3.47;82.61
10127;BME280;13080;42.608;23.362;2023-03-13T04:49:06;150227.88;;;-3.50;81.68
10127;BME280;13080;42.608;23.362;2023-03-13T04:51:33;150233.03;;;-3.48;81.88
10127;BME280;13080;42.608;23.362;2023-03-13T04:53:59;150230.47;;;-3.49;81.50
10127;BME280;13080;42.608;23.362;2023-03-13T04:56:26;150235.63;;;-3.47;81.12
10127;BME280;13080;42.608;23.362;2023-03-13T04:58:55;150234.28;;;-3.48;81.29
10127;BME280;13080;42.608;23.362;2023-03-13T05:01:21;150258.72;;;-3.38;81.85
10127;BME280;13080;42.608;23.362;2023-03-13T05:03:48;150250.97;;;-3.41;81.59
10127;BME280;13080;42.608;23.362;2023-03-13T05:06:15;150260.00;;;-3.38;80.20
10127;BME280;13080;42.608;23.362;2023-03-13T05:08:41;150269.00;;;-3.34;79.35
10127;BME280;13080;42.608;23.362;2023-03-13T05:11:09;150276.69;;;-3.31;79.67
10127;BME280;13080;42.608;23.362;2023-03-13T05:13:36;150288.25;;;-3.26;79.07
10127;BME280;13080;42.608;23.362;2023-03-13T05:16:05;150299.78;;;-3.22;78.64
10127;BME280;13080;42.608;23.362;2023-03-13T05:18:32;150313.94;;;-3.16;78.84
10127;BME280;13080;42.608;23.362;2023-03-13T05:20:58;150316.50;;;-3.15;78.46
10127;BME280;13080;42.608;23.362;2023-03-13T05:23:25;150325.50;;;-3.11;78.99
10127;BME280;13080;42.608;23.362;2023-03-13T05:25:52;150340.88;;;-3.05;79.57
10127;BME280;13080;42.608;23.362;2023-03-13T05:28:19;150356.31;;;-2.99;80.27
10127;BME280;13080;42.608;23.362;2023-03-13T05:30:45;150369.13;;;-2.94;79.32
10127;BME280;13080;42.608;23.362;2023-03-13T05:33:14;150389.69;;;-2.86;81.50
10127;BME280;13080;42.608;23.362;2023-03-13T05:35:41;150394.84;;;-2.84;81.20
10127;BME280;13080;42.608;23.362;2023-03-13T05:38:08;150399.97;;;-2.82;81.11
10127;BME280;13080;42.608;23.362;2023-03-13T05:40:35;150406.41;;;-2.79;80.85
10127;BME280;13080;42.608;23.362;2023-03-13T05:43:02;150416.69;;;-2.75;80.58
10127;BME280;13080;42.608;23.362;2023-03-13T05:45:29;150426.97;;;-2.71;81.24
10127;BME280;13080;42.608;23.362;2023-03-13T05:47:55;150446.22;;;-2.63;79.93
10127;BME280;13080;42.608;23.362;2023-03-13T05:50:24;150466.78;;;-2.55;78.80
10127;BME280;13080;42.608;23.362;2023-03-13T05:52:51;150487.31;;;-2.47;77.36
10127;BME280;13080;42.608;23.362;2023-03-13T05:55:18;150516.91;;;-2.35;76.98
10127;BME280;13080;42.608;23.362;2023-03-13T05:57:46;150573.47;;;-2.13;74.89
10127;BME280;13080;42.608;23.362;2023-03-13T06:00:14;150594.00;;;-2.04;74.94
10127;BME280;13080;42.608;23.362;2023-03-13T06:02:42;150654.44;;;-1.80;72.56
10127;BME280;13080;42.608;23.362;2023-03-13T06:05:09;150681.44;;;-1.70;72.65
10127;BME280;13080;42.608;23.362;2023-03-13T06:07:37;150726.47;;;-1.52;72.14
10127;BME280;13080;42.608;23.362;2023-03-13T06:10:06;150732.88;;;-1.49;72.82
10127;BME280;13080;42.608;23.362;2023-03-13T06:12:33;150726.47;;;-1.52;71.44
10127;BME280;13080;42.608;23.362;2023-03-13T06:15:00;150735.44;;;-1.48;71.52
10127;BME280;13080;42.608;23.362;2023-03-13T06:17:27;150768.88;;;-1.35;71.40
10127;BME280;13080;42.608;23.362;2023-03-13T06:19:53;150774.03;;;-1.33;71.43
10127;BME280;13080;42.608;23.362;2023-03-13T06:22:20;150745.72;;;-1.44;73.53
10127;BME280;13080;42.608;23.362;2023-03-13T06:24:48;150736.75;;;-1.48;73.83
10127;BME280;13080;42.608;23.362;2023-03-13T06:27:15;150747.06;;;-1.43;72.99
10127;BME280;13080;42.608;23.362;2023-03-13T06:29:42;150740.59;;;-1.46;73.04
10127;BME280;13080;42.608;23.362;2023-03-13T06:32:09;150772.75;;;-1.33;72.78
10127;BME280;13080;42.608;23.362;2023-03-13T06:34:36;150795.91;;;-1.24;72.50
10127;BME280;13080;42.608;23.362;2023-03-13T06:37:03;150790.75;;;-1.26;71.80
10127;BME280;13080;42.608;23.362;2023-03-13T06:39:29;150837.09;;;-1.08;71.27
10127;BME280;13080;42.608;23.362;2023-03-13T06:41:57;150829.34;;;-1.11;71.34
10127;BME280;13080;42.608;23.362;2023-03-13T06:44:24;150847.34;;;-1.03;71.50
10127;BME280;13080;42.608;23.362;2023-03-13T06:46:51;150843.53;;;-1.05;71.33
10127;BME280;13080;42.608;23.362;2023-03-13T06:49:18;150865.41;;;-0.96;71.63
10127;BME280;13080;42.608;23.362;2023-03-13T06:51:45;150885.97;;;-0.88;71.50
10127;BME280;13080;42.608;23.362;2023-03-13T06:54:12;150876.97;;;-0.92;72.38
10127;BME280;13080;42.608;23.362;2023-03-13T06:56:38;150931.00;;;-0.70;71.80
10127;BME280;13080;42.608;23.362;2023-03-13T06:59:07;150956.75;;;-0.60;71.68
10127;BME280;13080;42.608;23.362;2023-03-13T07:01:33;150976.03;;;-0.52;71.07
10127;BME280;13080;42.608;23.362;2023-03-13T07:04:00;151004.38;;;-0.41;70.85
10127;BME280;13080;42.608;23.362;2023-03-13T07:06:27;151015.94;;;-0.36;70.50
10127;BME280;13080;42.608;23.362;2023-03-13T07:08:54;151045.59;;;-0.25;69.31
10127;BME280;13080;42.608;23.362;2023-03-13T07:11:20;151061.00;;;-0.18;69.82
10127;BME280;13080;42.608;23.362;2023-03-13T07:13:47;151070.03;;;-0.15;69.86
10127;BME280;13080;42.608;23.362;2023-03-13T07:16:15;151086.78;;;-0.08;69.31
10127;BME280;13080;42.608;23.362;2023-03-13T07:18:42;151102.25;;;-0.02;68.51
10127;BME280;13080;42.608;23.362;2023-03-13T07:21:10;151143.44;;;0.14;69.55
10127;BME280;13080;42.608;23.362;2023-03-13T07:23:37;151143.44;;;0.14;68.87
10127;BME280;13080;42.608;23.362;2023-03-13T07:26:05;151173.06;;;0.26;69.85
10127;BME280;13080;42.608;23.362;2023-03-13T07:28:33;151187.25;;;0.32;67.99
10127;BME280;13080;42.608;23.362;2023-03-13T07:31:04;151187.25;;;0.32;68.41
10127;BME280;13080;42.608;23.362;2023-03-13T07:33:33;151192.41;;;0.34;68.83
10127;BME280;13080;42.608;23.362;2023-03-13T07:35:59;151227.19;;;0.48;67.81
10127;BME280;13080;42.608;23.362;2023-03-13T07:38:26;151249.09;;;0.56;67.25
10127;BME280;13080;42.608;23.362;2023-03-13T07:40:54;151291.59;;;0.73;66.32
10127;BME280;13080;42.608;23.362;2023-03-13T07:43:22;151281.25;;;0.69;67.76
10127;BME280;13080;42.608;23.362;2023-03-13T07:45:51;151301.91;;;0.77;67.68
10127;BME280;13080;42.608;23.362;2023-03-13T07:48:18;151326.38;;;0.87;66.72
10127;BME280;13080;42.608;23.362;2023-03-13T07:50:46;151345.72;;;0.95;66.90
10127;BME280;13080;42.608;23.362;2023-03-13T07:53:13;151389.56;;;1.12;65.21
10127;BME280;13080;42.608;23.362;2023-03-13T07:55:53;151393.38;;;1.14;65.08
10127;BME280;13080;42.608;23.362;2023-03-13T07:58:20;151429.50;;;1.28;64.48
10127;BME280;13080;42.608;23.362;2023-03-13T08:00:47;151428.19;;;1.28;64.12
10127;BME280;13080;42.608;23.362;2023-03-13T08:03:14;151441.13;;;1.33;64.68
10127;BME280;13080;42.608;23.362;2023-03-13T08:05:40;151450.13;;;1.36;65.33
10127;BME280;13080;42.608;23.362;2023-03-13T08:08:09;151456.53;;;1.39;64.35
10127;BME280;13080;42.608;23.362;2023-03-13T08:10:35;151470.75;;;1.44;63.76
10127;BME280;13080;42.608;23.362;2023-03-13T08:13:02;151483.63;;;1.50;64.22
10127;BME280;13080;42.608;23.362;2023-03-13T08:15:29;151535.22;;;1.70;63.73
10127;BME280;13080;42.608;23.362;2023-03-13T08:17:56;151541.69;;;1.73;64.67
10127;BME280;13080;42.608;23.362;2023-03-13T08:20:23;151577.78;;;1.87;65.60
10127;BME280;13080;42.608;23.362;2023-03-13T08:22:50;151619.06;;;2.03;64.92
10127;BME280;13080;42.608;23.362;2023-03-13T08:25:18;151639.72;;;2.12;64.27
10127;BME280;13080;42.608;23.362;2023-03-13T08:27:45;151657.75;;;2.19;64.43
10127;BME280;13080;42.608;23.362;2023-03-13T08:30:12;151655.19;;;2.18;65.19
10127;BME280;13080;42.608;23.362;2023-03-13T08:32:39;151677.13;;;2.26;64.32
10127;BME280;13080;42.608;23.362;2023-03-13T08:35:07;151646.16;;;2.14;64.66
10127;BME280;13080;42.608;23.362;2023-03-13T08:37:34;151693.88;;;2.33;63.81
10127;BME280;13080;42.608;23.362;2023-03-13T08:40:01;151692.59;;;2.33;63.74
10127;BME280;13080;42.608;23.362;2023-03-13T08:42:36;151730.03;;;2.47;64.45
10127;BME280;13080;42.608;23.362;2023-03-13T08:45:05;151724.84;;;2.45;64.08
10127;BME280;13080;42.608;23.362;2023-03-13T08:47:32;151767.47;;;2.62;62.74
10127;BME280;13080;42.608;23.362;2023-03-13T08:49:59;151764.88;;;2.61;62.14
10127;BME280;13080;42.608;23.362;2023-03-13T08:52:25;151762.31;;;2.60;64.29
10127;BME280;13080;42.608;23.362;2023-03-13T08:54:52;151755.81;;;2.58;63.99
10127;BME280;13080;42.608;23.362;2023-03-13T08:57:19;151767.47;;;2.62;62.68
10127;BME280;13080;42.608;23.362;2023-03-13T08:59:47;151806.16;;;2.78;62.23
10127;BME280;13080;42.608;23.362;2023-03-13T09:02:16;151758.41;;;2.59;62.39
10127;BME280;13080;42.608;23.362;2023-03-13T09:04:45;151784.19;;;2.69;62.13
10127;BME280;13080;42.608;23.362;2023-03-13T09:07:12;151811.31;;;2.80;62.95
10127;BME280;13080;42.608;23.362;2023-03-13T09:09:39;151832.00;;;2.88;62.47
10127;BME280;13080;42.608;23.362;2023-03-13T09:12:07;151839.72;;;2.91;62.53
10127;BME280;13080;42.608;23.362;2023-03-13T09:14:34;151888.78;;;3.10;62.19
10127;BME280;13080;42.608;23.362;2023-03-13T09:17:02;151930.09;;;3.27;61.73
10127;BME280;13080;42.608;23.362;2023-03-13T09:19:29;151983.06;;;3.48;60.05
10127;BME280;13080;42.608;23.362;2023-03-13T09:21:56;151966.28;;;3.41;61.46
10127;BME280;13080;42.608;23.362;2023-03-13T09:24:23;151977.91;;;3.46;61.12
10127;BME280;13080;42.608;23.362;2023-03-13T09:26:50;152011.47;;;3.59;59.60
10127;BME280;13080;42.608;23.362;2023-03-13T09:29:17;152017.94;;;3.62;59.18
10127;BME280;13080;42.608;23.362;2023-03-13T09:31:44;152028.28;;;3.66;60.14
10127;BME280;13080;42.608;23.362;2023-03-13T09:34:12;152032.13;;;3.67;59.36
10127;BME280;13080;42.608;23.362;2023-03-13T09:36:39;152020.50;;;3.63;59.18
10127;BME280;13080;42.608;23.362;2023-03-13T09:39:05;152051.53;;;3.75;58.78
10127;BME280;13080;42.608;23.362;2023-03-13T09:41:36;152087.69;;;3.89;57.96
10127;BME280;13080;42.608;23.362;2023-03-13T09:44:12;152120.00;;;4.02;57.69
10127;BME280;13080;42.608;23.362;2023-03-13T09:46:44;152117.38;;;4.01;59.12
10127;BME280;13080;42.608;23.362;2023-03-13T09:49:25;152178.13;;;4.25;57.89
10127;BME280;13080;42.608;23.362;2023-03-13T09:51:57;152201.38;;;4.34;56.94
10127;BME280;13080;42.608;23.362;2023-03-13T09:54:27;152197.53;;;4.33;58.49
10127;BME280;13080;42.608;23.362;2023-03-13T09:56:57;152236.28;;;4.48;57.49
10127;BME280;13080;42.608;23.362;2023-03-13T09:59:28;152253.09;;;4.55;56.48
10127;BME280;13080;42.608;23.362;2023-03-13T10:01:59;152293.19;;;4.71;58.48
10127;BME280;13080;42.608;23.362;2023-03-13T10:04:34;152290.59;;;4.70;55.67
10127;BME280;13080;42.608;23.362;2023-03-13T10:07:03;152297.06;;;4.72;56.21
10127;BME280;13080;42.608;23.362;2023-03-13T10:09:32;152309.97;;;4.77;56.37
10127;BME280;13080;42.608;23.362;2023-03-13T10:12:05;152352.66;;;4.94;55.07
10127;BME280;13080;42.608;23.362;2023-03-13T10:14:41;152312.56;;;4.78;56.51
10127;BME280;13080;42.608;23.362;2023-03-13T10:17:14;152321.66;;;4.82;54.88
10127;BME280;13080;42.608;23.362;2023-03-13T10:19:54;152341.03;;;4.90;57.29
10127;BME280;13080;42.608;23.362;2023-03-13T10:22:25;152353.94;;;4.95;57.30
10127;BME280;13080;42.608;23.362;2023-03-13T10:24:55;152374.63;;;5.03;54.87
10127;BME280;13080;42.608;23.362;2023-03-13T10:27:23;152396.63;;;5.12;55.22
10127;BME280;13080;42.608;23.362;2023-03-13T10:29:50;152439.28;;;5.29;55.01
10127;BME280;13080;42.608;23.362;2023-03-13T10:32:17;152436.72;;;5.28;55.56
10127;BME280;13080;42.608;23.362;2023-03-13T10:34:49;152439.28;;;5.29;53.43
10127;BME280;13080;42.608;23.362;2023-03-13T10:37:21;152438.00;;;5.28;53.10
10127;BME280;13080;42.608;23.362;2023-03-13T10:39:48;152452.25;;;5.34;54.10
10127;BME280;13080;42.608;23.362;2023-03-13T10:42:22;152484.56;;;5.47;55.66
10127;BME280;13080;42.608;23.362;2023-03-13T10:44:55;152511.72;;;5.57;54.18
10127;BME280;13080;42.608;23.362;2023-03-13T10:47:23;152500.09;;;5.53;53.20
10127;BME280;13080;42.608;23.362;2023-03-13T10:49:55;152522.09;;;5.61;53.10
10127;BME280;13080;42.608;23.362;2023-03-13T10:52:31;152516.91;;;5.59;52.95
10127;BME280;13080;42.608;23.362;2023-03-13T10:55:04;152536.31;;;5.67;52.68
10127;BME280;13080;42.608;23.362;2023-03-13T10:57:32;152541.47;;;5.69;52.41
10127;BME280;13080;42.608;23.362;2023-03-13T11:00:02;152545.38;;;5.71;51.91
10127;BME280;13080;42.608;23.362;2023-03-13T11:02:36;152576.47;;;5.83;52.59
10127;BME280;13080;42.608;23.362;2023-03-13T11:05:29;152584.19;;;5.86;51.81
10127;BME280;13080;42.608;23.362;2023-03-13T11:07:56;152617.91;;;5.99;51.58
10127;BME280;13080;42.608;23.362;2023-03-13T11:10:24;152641.19;;;6.09;51.08
10127;BME280;13080;42.608;23.362;2023-03-13T11:12:53;152593.28;;;5.90;51.35
10127;BME280;13080;42.608;23.362;2023-03-13T11:15:22;152611.44;;;5.97;51.28
10127;BME280;13080;42.608;23.362;2023-03-13T11:17:56;152608.81;;;5.96;51.22
10127;BME280;13080;42.608;23.362;2023-03-13T11:20:27;152628.25;;;6.03;52.54
10127;BME280;13080;42.608;23.362;2023-03-13T11:23:08;152670.94;;;6.20;52.09
10127;BME280;13080;42.608;23.362;2023-03-13T11:25:41;152705.88;;;6.34;50.27
10127;BME280;13080;42.608;23.362;2023-03-13T11:28:19;152720.16;;;6.40;52.73
10127;BME280;13080;42.608;23.362;2023-03-13T11:30:56;152748.63;;;6.51;51.05
10127;BME280;13080;42.608;23.362;2023-03-13T11:33:35;152749.91;;;6.52;49.91
10127;BME280;13080;42.608;23.362;2023-03-13T11:36:14;152757.72;;;6.55;49.37
10127;BME280;13080;42.608;23.362;2023-03-13T11:38:47;152748.63;;;6.51;49.48
10127;BME280;13080;42.608;23.362;2023-03-13T11:41:26;152740.88;;;6.48;50.10
10127;BME280;13080;42.608;23.362;2023-03-13T11:46:48;152797.84;;;6.71;48.63
10127;BME280;13080;42.608;23.362;2023-03-13T11:50:05;152788.78;;;6.67;49.19
10127;BME280;13080;42.608;23.362;2023-03-13T11:52:56;152727.91;;;6.43;49.16
10127;BME280;13080;42.608;23.362;2023-03-13T11:55:30;152734.38;;;6.45;49.58
10127;BME280;13080;42.608;23.362;2023-03-13T11:58:08;152782.31;;;6.64;48.61
10127;BME280;13080;42.608;23.362;2023-03-13T12:00:41;152786.19;;;6.66;48.77
10127;BME280;13080;42.608;23.362;2023-03-13T12:03:14;152770.66;;;6.60;49.43
10127;BME280;13080;42.608;23.362;2023-03-13T12:05:44;152786.19;;;6.66;49.97
10127;BME280;13080;42.608;23.362;2023-03-13T12:08:19;152813.34;;;6.77;49.28
10127;BME280;13080;42.608;23.362;2023-03-13T12:11:00;152836.66;;;6.86;49.78
10127;BME280;13080;42.608;23.362;2023-03-13T12:13:33;152865.19;;;6.97;48.35
10127;BME280;13080;42.608;23.362;2023-03-13T12:16:08;152870.34;;;6.99;49.93
10127;BME280;13080;42.608;23.362;2023-03-13T12:18:37;152876.84;;;7.02;48.95
10127;BME280;13080;42.608;23.362;2023-03-13T12:21:08;152888.50;;;7.06;49.96
10127;BME280;13080;42.608;23.362;2023-03-13T12:23:44;152909.19;;;7.15;48.91
10127;BME280;13080;42.608;23.362;2023-03-13T12:26:14;152920.84;;;7.19;48.71
10127;BME280;13080;42.608;23.362;2023-03-13T12:28:44;152931.22;;;7.23;48.30
10127;BME280;13080;42.608;23.362;2023-03-13T12:31:18;152949.34;;;7.31;49.18
10127;BME280;13080;42.608;23.362;2023-03-13T12:33:53;152967.53;;;7.38;47.05
10127;BME280;13080;42.608;23.362;2023-03-13T12:36:23;153002.50;;;7.52;46.79
10127;BME280;13080;42.608;23.362;2023-03-13T12:38:58;152992.13;;;7.47;45.54
10127;BME280;13080;42.608;23.362;2023-03-13T12:41:30;153002.50;;;7.52;46.46
10127;BME280;13080;42.608;23.362;2023-03-13T12:43:58;152994.69;;;7.48;46.89
10127;BME280;13080;42.608;23.362;2023-03-13T12:46:44;152998.59;;;7.50;46.81
10127;BME280;13080;42.608;23.362;2023-03-13T12:49:36;153023.22;;;7.60;45.82
10127;BME280;13080;42.608;23.362;2023-03-13T12:52:31;153037.47;;;7.65;46.88
10127;BME280;13080;42.608;23.362;2023-03-13T12:55:22;153059.53;;;7.74;45.62
10127;BME280;13080;42.608;23.362;2023-03-13T12:58:28;153062.09;;;7.75;45.93
10127;BME280;13080;42.608;23.362;2023-03-13T13:01:01;153037.47;;;7.65;47.05